Parker Lake, Missouri
Current Conditions -  °F | °C
As of 3:55 AM on Sunday 23 Nov 2014 (Local Time) from KFAM Reporting Station
Broken Clouds Broken Clouds  
Wind Chill: 52°   Ceiling: 3700
Heat Index: 52°   Visibility: 10mi
Dew Point: 45°   Wind: 9mph
Humidity: 76%   Direction: 120°ESE
Pressure: 29.79"   Gusts: NA
Location:  37.7127°N, 89.8903°W
Report Text: KFAM 230955Z AUTO 12008KT 10SM BKN037 11/07 A2979 RMK AO1
Loading
Personal Weather Stations






























Interactive Weather Map New forecast layout! Learn more

10-Day Weather Forecast

Advertisements
Track Severe Weather on mobile